FARA weather

Petit Airport
Daveyton, Gauteng, South Africa

Public forecast

Using degrees Celsius for public forecast. Weather courtesy of forecast.io.

Closest aviation weather report (METAR) to Petit Airport

Closest report is OR Tambo International Airport, 8.4 nm (15.6 km) WSW. Retrieved 2020/05/26 08:30 UTC (18 minutes ago):

FAOR 260830Z 20008KT 170V230 CAVOK 12/02 Q1018 NOSIG

Closest aviation forecast (TAF) to Petit Airport

Closest forecast is OR Tambo International Airport, 8.4 nm (15.6 km) WSW. Retrieved 2020/05/26 06:00 UTC (3 hours ago):

TAF FAOR 260400Z 2606/2712 19015KT CAVOK TX15/2612Z TN02/2705Z BECMG 2610/2612 26012KT BECMG 2616/2618 18017KT